Estación Meteorológica Peña el Pijo (Robertgarden) [ 02/03/23 03:32:04 CET ]

Fecha Hora Presion(HPa) Temp (°C) Humedad % Rocio (°C) Viento ( m/s) Direccion Lluvia 1Hora(mm) Lluvia 24H(mm) LLuvia Total(mm)
2010-Sep-17 01:01:16 1010.000 14.9 89 13.1         156.43
2010-Sep-17 02:01:14 1009.200 14.9 90 13.3         156.43
2010-Sep-17 03:01:14 1009.100 15.3 89 13.5         156.43
2010-Sep-17 04:01:14 1008.300 15.1 88 13.1         156.43
2010-Sep-17 05:01:15 1007.500 15.1 87 13.0         156.43
2010-Sep-17 06:01:13 1007.600 14.4 86 12.1         156.43
2010-Sep-17 07:01:13 1007.600 13.2 88 11.2         156.43
2010-Sep-17 08:01:15 1007.900 12.4 90 10.8         156.43
2010-Sep-17 09:01:17 1007.600 14.3 91 12.9         156.43
2010-Sep-17 10:01:12 1007.300 17.5 81 14.2         156.43
2010-Sep-17 11:01:14 1007.300 18.9 74 14.1         156.43
2010-Sep-17 12:01:15 1007.200 21.1 65 14.2         156.43
2010-Sep-17 13:01:12 1006.200 27.6 40 12.8         156.43
2010-Sep-17 14:01:14 1005.800 27.5 35 10.6         156.43
2010-Sep-17 15:01:14 1006.600 18.4 67 12.2     2.07 2.07 158.50
2010-Sep-17 16:01:18 1005.500 22.6 53 12.5       2.07 158.50
2010-Sep-17 17:01:30 1005.400 25.8 39 10.8       2.07 158.50
2010-Sep-17 18:01:29 1005.000 24.4 39 9.5       2.07 158.50
2010-Sep-17 19:01:24 1005.200 21.5 44 8.7       2.07 158.50
2010-Sep-17 20:02:49 1005.300 19.9 48 8.6       2.07 158.50
2010-Sep-17 21:01:15 1006.000 18.5 55 9.2       2.07 158.50
2010-Sep-17 22:01:14 1007.100 17.5 61 9.9       2.07 158.50
2010-Sep-17 23:01:15 1007.800 15.9 64 9.1       2.07 158.50

Temperatura Máxima:27°    Temperatura Mínima:12°
Presión Máxima:1010.000 Hpa    Presión Mínima:1005.000 Hpa


Volver